This is the latest recevied weather packets stored in our database for station/object WP3OF-2. If no packets are shown the sender has not sent any weather packets the latest 10 day(s).
| Time | Temp. | Humidity | Pressure | Rain* | Wind** | Luminosity | Snow |
|---|---|---|---|---|---|---|---|
| 1777836955 | 23.89° C | 83% | 1025.6 hPa | 0 mm | - | 602 W/m² | - |
| 1777836650 | 23.33° C | 82% | 1025.6 hPa | 0 mm | - | 620 W/m² | - |
| 1777836346 | 23.33° C | 84% | 1025.6 hPa | 0 mm | - | 632 W/m² | - |
| 1777836043 | 23.33° C | 84% | 1026 hPa | 0 mm | - | 660 W/m² | - |
| 1777835739 | 23.89° C | 83% | 1025.6 hPa | 0 mm | - | 684 W/m² | - |
| 1777835436 | 23.89° C | 83% | 1025.6 hPa | 0 mm | - | 692 W/m² | - |
| 1777835133 | 23.33° C | 85% | 1026 hPa | 0 mm | - | 761 W/m² | - |
| 1777834831 | 22.78° C | 85% | 1026 hPa | 0 mm | - | 807 W/m² | - |
| 1777834527 | 23.33° C | 86% | 1026 hPa | 0 mm | - | 353 W/m² | - |
| 1777834226 | 23.89° C | 84% | 1026 hPa | 0 mm | - | 337 W/m² | - |
| 1777833923 | 23.89° C | 82% | 1026 hPa | 0 mm | - | 519 W/m² | - |
| 1777833619 | 23.89° C | 83% | 1026 hPa | 0 mm | - | 829 W/m² | - |
| 1777833316 | 23.89° C | 87% | 1026 hPa | 0 mm | - | 876 W/m² | - |
| 1777833013 | 23.89° C | 85% | 1026 hPa | 0 mm | - | 698 W/m² | - |
| 1777832712 | 23.89° C | 85% | 1026 hPa | 0 mm | - | 557 W/m² | - |
| 1777832409 | 22.78° C | 88% | 1026 hPa | 0 mm | - | 796 W/m² | - |
| 1777832106 | 23.33° C | 87% | 1026 hPa | 0 mm | - | 799 W/m² | - |
| 1777831802 | 23.89° C | 87% | 1026 hPa | 0 mm | - | 195 W/m² | - |
| 1777831500 | 23.89° C | 87% | 1026.3 hPa | 0 mm | - | 326 W/m² | - |
| 1777831196 | 23.89° C | 87% | 1026.7 hPa | 0 mm | - | 275 W/m² | - |
| 1777830895 | 23.33° C | 88% | 1026.3 hPa | 0 mm | - | 1047 W/m² | - |
| 1777830591 | 23.33° C | 88% | 1026.3 hPa | 0 mm | - | 381 W/m² | - |
| 1777830289 | 23.33° C | 86% | 1026.7 hPa | 0 mm | - | 293 W/m² | - |
| 1777829984 | 23.33° C | 87% | 1026.3 hPa | 0 mm | - | 373 W/m² | - |
| 1777829680 | 23.89° C | 86% | 1026.7 hPa | 0 mm | - | 189 W/m² | - |
* Rain latest hour (hover to see other rain measurements)
** Current wind speed in m/s (hover to see current wind gust speed)